| Date | Time | Temp. (oF) | Dew Point (oF) | Rel. Hum. (%) | Press. (in.) | Wind Dir. | Wind Speed (mph) | Hourly Rainfall (in.) |
|
|---|---|---|---|---|---|---|---|---|---|
| 1 | 07/24 | 00:00 | 76 | 75 | 98 | 30.05 | SE | 7 | 0.00 |
| 2 | 07/23 | 23:00 | 75 | 74 | 98 | 30.05 | E | 9 | 0.00 |
| 3 | 07/23 | 22:00 | 75 | 74 | 98 | 30.05 | SE | 4 | 0.01 |
| 4 | 07/23 | 21:00 | 75 | 75 | 100 | 30.03 | E | 4 | 0.43 |
| 5 | 07/23 | 20:00 | 75 | 74 | 98 | 30.02 | SSE | 6 | 0.12 |
| 6 | 07/23 | 19:00 | 76 | 74 | 95 | 30.00 | SSE | 4 | 0.34 |
| 7 | 07/23 | 18:00 | 77 | 77 | 100 | 29.99 | E | 5 | 0.30 |
| 8 | 07/23 | 17:00 | 75 | 73 | 94 | 29.98 | E | 1 | 0.20 |
| 9 | 07/23 | 16:00 | 78 | 74 | 90 | 29.98 | SE | 2 | 0.08 |
| 10 | 07/23 | 15:00 | 84 | 73 | 72 | 29.97 | SSE | 5 | 0.00 |
| 11 | 07/23 | 14:00 | 82 | 75 | 81 | 29.98 | SE | 5 | 0.03 |
| 12 | 07/23 | 13:00 | 78 | 75 | 92 | 29.99 | SE | 5 | 0.21 |
| 13 | 07/23 | 12:00 | 80 | 76 | 90 | 29.98 | SSE | 3 | 0.05 |
| 14 | 07/23 | 11:00 | 82 | 76 | 83 | 29.97 | E | 10 | 0.00 |
| 15 | 07/23 | 10:00 | 80 | 75 | 86 | 29.97 | SE | 4 | 0.00 |
| 16 | 07/23 | 09:00 | 79 | 76 | 92 | 29.96 | SSE | 5 | 0.00 |
| 17 | 07/23 | 08:00 | 78 | 76 | 95 | 29.95 | S | 9 | 0.00 |
| 18 | 07/23 | 07:00 | 77 | 76 | 98 | 29.93 | ESE | 2 | 0.06 |
| 19 | 07/23 | 06:00 | 77 | 76 | 97 | 29.92 | E | 3 | 0.01 |
| 20 | 07/23 | 05:00 | 77 | 76 | 97 | 29.91 | E | 5 | 0.00 |
| 21 | 07/23 | 04:00 | 76 | 75 | 98 | 29.90 | SSE | 3 | 0.00 |
| 22 | 07/23 | 03:00 | 76 | 75 | 99 | 29.87 | E | 2 | 0.14 |
| 23 | 07/23 | 02:00 | 74 | 73 | 100 | 29.88 | ENE | 2 | 0.39 |
| 24 | 07/23 | 01:00 | 71 | 70 | 99 | 29.92 | N | 2 | 0.00 |